sensor_id;sensor_type;location;lat;lon;timestamp;pressure;altitude;pressure_sealevel;temperature;humidity
76858;BME280;65830;0.000;0.000;2023-04-23T00:00:31;99781.75;;;12.85;68.67
76858;BME280;65830;0.000;0.000;2023-04-23T00:02:57;99782.72;;;12.84;68.63
76858;BME280;65830;0.000;0.000;2023-04-23T00:05:24;99785.19;;;12.95;67.81
76858;BME280;65830;0.000;0.000;2023-04-23T00:07:51;99785.47;;;12.92;68.29
76858;BME280;65830;0.000;0.000;2023-04-23T00:10:17;99787.00;;;12.77;68.88
76858;BME280;65830;0.000;0.000;2023-04-23T00:12:43;99782.59;;;12.85;67.80
76858;BME280;65830;0.000;0.000;2023-04-23T00:15:10;99790.97;;;12.90;66.82
76858;BME280;65830;0.000;0.000;2023-04-23T00:17:35;99794.38;;;12.83;68.43
76858;BME280;65830;0.000;0.000;2023-04-23T00:20:01;99793.91;;;12.69;68.83
76858;BME280;65830;0.000;0.000;2023-04-23T00:22:27;99784.88;;;12.52;68.95
76858;BME280;65830;0.000;0.000;2023-04-23T00:24:52;99800.19;;;12.68;68.91
76858;BME280;65830;0.000;0.000;2023-04-23T00:27:18;99800.66;;;12.64;68.37
76858;BME280;65830;0.000;0.000;2023-04-23T00:29:45;99805.94;;;12.74;66.91
76858;BME280;65830;0.000;0.000;2023-04-23T00:32:11;99807.06;;;12.71;68.43
76858;BME280;65830;0.000;0.000;2023-04-23T00:34:38;99812.53;;;12.69;68.99
76858;BME280;65830;0.000;0.000;2023-04-23T00:37:04;99813.13;;;12.63;68.32
76858;BME280;65830;0.000;0.000;2023-04-23T00:39:31;99814.78;;;12.64;67.82
76858;BME280;65830;0.000;0.000;2023-04-23T00:41:57;99809.88;;;12.69;68.69
76858;BME280;65830;0.000;0.000;2023-04-23T00:44:25;99811.38;;;12.72;67.75
76858;BME280;65830;0.000;0.000;2023-04-23T00:46:50;99816.38;;;12.57;67.95
76858;BME280;65830;0.000;0.000;2023-04-23T00:49:17;99819.28;;;12.36;69.09
76858;BME280;65830;0.000;0.000;2023-04-23T00:51:43;99819.41;;;12.35;68.10
76858;BME280;65830;0.000;0.000;2023-04-23T00:54:08;99824.56;;;12.46;67.17
76858;BME280;65830;0.000;0.000;2023-04-23T00:56:34;99818.38;;;12.55;66.57
76858;BME280;65830;0.000;0.000;2023-04-23T00:59:00;99826.03;;;12.58;65.42
76858;BME280;65830;0.000;0.000;2023-04-23T01:01:27;99823.09;;;12.61;65.46
76858;BME280;65830;0.000;0.000;2023-04-23T01:03:54;99824.41;;;12.47;65.62
76858;BME280;65830;0.000;0.000;2023-04-23T01:06:20;99821.09;;;12.36;66.09
76858;BME280;65830;0.000;0.000;2023-04-23T01:08:46;99824.47;;;12.38;65.93
76858;BME280;65830;0.000;0.000;2023-04-23T01:11:12;99816.56;;;12.46;65.12
76858;BME280;65830;0.000;0.000;2023-04-23T01:13:39;99817.94;;;12.50;64.62
76858;BME280;65830;0.000;0.000;2023-04-23T01:16:05;99819.53;;;12.43;64.87
76858;BME280;65830;0.000;0.000;2023-04-23T01:18:32;99821.75;;;12.47;64.47
76858;BME280;65830;0.000;0.000;2023-04-23T01:20:58;99823.13;;;12.51;64.36
76858;BME280;65830;0.000;0.000;2023-04-23T01:23:24;99814.84;;;12.27;65.14
76858;BME280;65830;0.000;0.000;2023-04-23T01:25:51;99820.69;;;12.30;64.61
76858;BME280;65830;0.000;0.000;2023-04-23T01:28:17;99813.88;;;12.18;64.95
76858;BME280;65830;0.000;0.000;2023-04-23T01:30:43;99812.47;;;12.24;64.56
76858;BME280;65830;0.000;0.000;2023-04-23T01:33:09;99815.28;;;12.22;64.74
76858;BME280;65830;0.000;0.000;2023-04-23T01:35:36;99815.13;;;12.24;65.02
76858;BME280;65830;0.000;0.000;2023-04-23T01:38:02;99806.59;;;12.20;64.49
76858;BME280;65830;0.000;0.000;2023-04-23T01:40:28;99812.41;;;12.06;65.25
76858;BME280;65830;0.000;0.000;2023-04-23T01:42:53;99818.41;;;11.88;65.39
76858;BME280;65830;0.000;0.000;2023-04-23T01:45:20;99813.56;;;11.94;64.82
76858;BME280;65830;0.000;0.000;2023-04-23T01:47:45;99816.59;;;11.79;65.44
76858;BME280;65830;0.000;0.000;2023-04-23T01:50:12;99825.03;;;11.65;65.84
76858;BME280;65830;0.000;0.000;2023-04-23T01:52:37;99822.50;;;11.73;65.41
76858;BME280;65830;0.000;0.000;2023-04-23T01:55:03;99825.28;;;11.81;65.51
76858;BME280;65830;0.000;0.000;2023-04-23T01:57:29;99824.31;;;11.72;65.46
76858;BME280;65830;0.000;0.000;2023-04-23T01:59:58;99825.16;;;11.63;65.48
76858;BME280;65830;0.000;0.000;2023-04-23T02:02:24;99829.25;;;11.58;66.45
76858;BME280;65830;0.000;0.000;2023-04-23T02:04:50;99825.03;;;11.55;66.71
76858;BME280;65830;0.000;0.000;2023-04-23T02:07:17;99822.38;;;11.55;65.82
76858;BME280;65830;0.000;0.000;2023-04-23T02:09:43;99829.25;;;11.58;65.98
76858;BME280;65830;0.000;0.000;2023-04-23T02:12:08;99819.88;;;11.53;66.05
76858;BME280;65830;0.000;0.000;2023-04-23T02:14:34;99828.97;;;11.51;66.19
76858;BME280;65830;0.000;0.000;2023-04-23T02:16:59;99831.34;;;11.54;65.85
76858;BME280;65830;0.000;0.000;2023-04-23T02:19:25;99824.66;;;11.40;65.92
76858;BME280;65830;0.000;0.000;2023-04-23T02:21:53;99826.03;;;11.35;66.10
76858;BME280;65830;0.000;0.000;2023-04-23T02:24:19;99829.50;;;11.25;66.46
76858;BME280;65830;0.000;0.000;2023-04-23T02:26:44;99831.34;;;11.25;67.12
76858;BME280;65830;0.000;0.000;2023-04-23T02:29:10;99821.00;;;11.31;66.76
76858;BME280;65830;0.000;0.000;2023-04-23T02:31:35;99825.59;;;11.29;66.61
76858;BME280;65830;0.000;0.000;2023-04-23T02:34:01;99823.25;;;11.36;66.30
76858;BME280;65830;0.000;0.000;2023-04-23T02:36:27;99826.16;;;11.43;65.80
76858;BME280;65830;0.000;0.000;2023-04-23T02:38:55;99822.38;;;11.45;65.99
76858;BME280;65830;0.000;0.000;2023-04-23T02:41:20;99829.53;;;11.35;66.10
76858;BME280;65830;0.000;0.000;2023-04-23T02:43:46;99820.72;;;11.35;66.07
76858;BME280;65830;0.000;0.000;2023-04-23T02:46:12;99826.31;;;11.41;64.99
76858;BME280;65830;0.000;0.000;2023-04-23T02:48:38;99832.75;;;11.39;65.68
76858;BME280;65830;0.000;0.000;2023-04-23T02:51:04;99832.88;;;11.37;66.25
76858;BME280;65830;0.000;0.000;2023-04-23T02:53:30;99833.88;;;11.36;65.54
76858;BME280;65830;0.000;0.000;2023-04-23T02:55:56;99830.50;;;11.24;65.48
76858;BME280;65830;0.000;0.000;2023-04-23T02:58:21;99830.75;;;11.11;66.49
76858;BME280;65830;0.000;0.000;2023-04-23T03:00:49;99838.72;;;11.02;66.70
76858;BME280;65830;0.000;0.000;2023-04-23T03:03:15;99831.03;;;10.99;66.29
76858;BME280;65830;0.000;0.000;2023-04-23T03:05:42;99834.97;;;11.04;66.46
76858;BME280;65830;0.000;0.000;2023-04-23T03:08:07;99840.69;;;11.09;65.39
76858;BME280;65830;0.000;0.000;2023-04-23T03:10:33;99838.47;;;11.15;65.84
76858;BME280;65830;0.000;0.000;2023-04-23T03:12:58;99843.06;;;11.12;65.88
76858;BME280;65830;0.000;0.000;2023-04-23T03:15:24;99834.41;;;11.10;65.74
76858;BME280;65830;0.000;0.000;2023-04-23T03:17:49;99844.19;;;11.00;66.07
76858;BME280;65830;0.000;0.000;2023-04-23T03:20:17;99850.00;;;10.94;65.78
76858;BME280;65830;0.000;0.000;2023-04-23T03:22:43;99846.84;;;11.00;65.15
76858;BME280;65830;0.000;0.000;2023-04-23T03:25:09;99855.06;;;10.97;65.87
76858;BME280;65830;0.000;0.000;2023-04-23T03:27:34;99861.63;;;10.93;65.77
76858;BME280;65830;0.000;0.000;2023-04-23T03:30:00;99862.19;;;10.97;65.15
76858;BME280;65830;0.000;0.000;2023-04-23T03:32:25;99864.03;;;10.96;65.36
76858;BME280;65830;0.000;0.000;2023-04-23T03:34:51;99859.22;;;10.90;66.02
76858;BME280;65830;0.000;0.000;2023-04-23T03:37:17;99858.13;;;10.92;65.82
76858;BME280;65830;0.000;0.000;2023-04-23T03:39:44;99865.78;;;10.86;66.04
76858;BME280;65830;0.000;0.000;2023-04-23T03:42:10;99869.44;;;10.85;65.83
76858;BME280;65830;0.000;0.000;2023-04-23T03:44:37;99868.88;;;10.91;65.40
76858;BME280;65830;0.000;0.000;2023-04-23T03:47:02;99878.97;;;10.97;65.23
76858;BME280;65830;0.000;0.000;2023-04-23T03:49:30;99864.44;;;11.01;66.22
76858;BME280;65830;0.000;0.000;2023-04-23T03:51:55;99876.03;;;11.00;66.56
76858;BME280;65830;0.000;0.000;2023-04-23T03:54:21;99870.72;;;11.00;66.08
76858;BME280;65830;0.000;0.000;2023-04-23T03:57:09;99872.41;;;11.01;67.10
76858;BME280;65830;0.000;0.000;2023-04-23T03:59:51;99878.00;;;10.98;67.19
76858;BME280;65830;0.000;0.000;2023-04-23T04:02:16;99879.09;;;10.96;66.40
76858;BME280;65830;0.000;0.000;2023-04-23T04:04:42;99885.53;;;10.93;66.93
76858;BME280;65830;0.000;0.000;2023-04-23T04:07:10;99880.78;;;10.97;65.79
76858;BME280;65830;0.000;0.000;2023-04-23T04:09:36;99884.66;;;10.83;66.80
76858;BME280;65830;0.000;0.000;2023-04-23T04:12:01;99884.09;;;10.79;67.04
76858;BME280;65830;0.000;0.000;2023-04-23T04:14:28;99886.59;;;10.81;67.04
76858;BME280;65830;0.000;0.000;2023-04-23T04:16:54;99889.97;;;10.83;67.60
76858;BME280;65830;0.000;0.000;2023-04-23T04:19:19;99896.13;;;10.93;66.50
76858;BME280;65830;0.000;0.000;2023-04-23T04:21:45;99894.63;;;11.00;66.69
76858;BME280;65830;0.000;0.000;2023-04-23T04:24:10;99902.44;;;11.02;66.32
76858;BME280;65830;0.000;0.000;2023-04-23T04:26:36;99898.41;;;11.07;66.08
76858;BME280;65830;0.000;0.000;2023-04-23T04:29:01;99900.94;;;11.09;66.19
76858;BME280;65830;0.000;0.000;2023-04-23T04:31:27;99896.44;;;11.09;66.07
76858;BME280;65830;0.000;0.000;2023-04-23T04:33:53;99910.16;;;11.15;65.93
76858;BME280;65830;0.000;0.000;2023-04-23T04:36:20;99905.81;;;11.13;66.40
76858;BME280;65830;0.000;0.000;2023-04-23T04:38:45;99911.28;;;11.22;66.09
76858;BME280;65830;0.000;0.000;2023-04-23T04:41:11;99905.44;;;11.28;66.23
76858;BME280;65830;0.000;0.000;2023-04-23T04:43:37;99915.38;;;11.36;66.38
76858;BME280;65830;0.000;0.000;2023-04-23T04:46:03;99912.88;;;11.44;65.61
76858;BME280;65830;0.000;0.000;2023-04-23T04:48:29;99914.97;;;11.50;65.09
76858;BME280;65830;0.000;0.000;2023-04-23T04:50:55;99920.69;;;11.45;65.39
76858;BME280;65830;0.000;0.000;2023-04-23T04:53:21;99924.75;;;11.49;65.68
76858;BME280;65830;0.000;0.000;2023-04-23T04:55:46;99928.28;;;11.50;65.44
76858;BME280;65830;0.000;0.000;2023-04-23T04:58:12;99938.47;;;11.64;64.66
76858;BME280;65830;0.000;0.000;2023-04-23T05:00:38;99935.97;;;11.72;64.45
76858;BME280;65830;0.000;0.000;2023-04-23T05:03:03;99942.13;;;11.73;64.24
76858;BME280;65830;0.000;0.000;2023-04-23T05:05:30;99938.50;;;11.74;63.97
76858;BME280;65830;0.000;0.000;2023-04-23T05:07:56;99934.84;;;11.75;64.01
76858;BME280;65830;0.000;0.000;2023-04-23T05:10:26;99940.16;;;11.85;63.63
76858;BME280;65830;0.000;0.000;2023-04-23T05:12:52;99939.63;;;11.91;63.55
76858;BME280;65830;0.000;0.000;2023-04-23T05:15:18;99944.41;;;11.97;63.28
76858;BME280;65830;0.000;0.000;2023-04-23T05:17:43;99944.53;;;12.05;63.10
76858;BME280;65830;0.000;0.000;2023-04-23T05:20:09;99955.88;;;12.17;63.03
76858;BME280;65830;0.000;0.000;2023-04-23T05:22:36;99945.22;;;12.27;62.80
76858;BME280;65830;0.000;0.000;2023-04-23T05:25:02;99935.97;;;12.31;62.36
76858;BME280;65830;0.000;0.000;2023-04-23T05:27:28;99953.00;;;12.48;62.19
76858;BME280;65830;0.000;0.000;2023-04-23T05:29:53;99952.97;;;12.58;61.32
76858;BME280;65830;0.000;0.000;2023-04-23T05:32:18;99953.81;;;12.58;61.17
76858;BME280;65830;0.000;0.000;2023-04-23T05:34:44;99948.75;;;12.65;61.21
76858;BME280;65830;0.000;0.000;2023-04-23T05:37:09;99950.69;;;12.73;60.98
76858;BME280;65830;0.000;0.000;2023-04-23T05:39:35;99951.94;;;12.68;60.94
76858;BME280;65830;0.000;0.000;2023-04-23T05:42:01;99953.59;;;12.79;60.74
76858;BME280;65830;0.000;0.000;2023-04-23T05:44:27;99951.28;;;12.94;60.48
76858;BME280;65830;0.000;0.000;2023-04-23T05:46:53;99951.75;;;13.17;59.96
76858;BME280;65830;0.000;0.000;2023-04-23T05:49:18;99956.53;;;13.14;58.93
76858;BME280;65830;0.000;0.000;2023-04-23T05:51:44;99956.19;;;13.26;59.13
76858;BME280;65830;0.000;0.000;2023-04-23T05:54:10;99957.16;;;13.35;59.12
76858;BME280;65830;0.000;0.000;2023-04-23T05:56:35;99960.38;;;13.29;57.97
76858;BME280;65830;0.000;0.000;2023-04-23T05:59:01;99961.50;;;13.36;58.83
76858;BME280;65830;0.000;0.000;2023-04-23T06:01:26;99960.06;;;13.14;58.69
76858;BME280;65830;0.000;0.000;2023-04-23T06:03:53;99956.53;;;13.14;59.33
76858;BME280;65830;0.000;0.000;2023-04-23T06:06:18;99968.97;;;13.23;58.26
76858;BME280;65830;0.000;0.000;2023-04-23T06:08:44;99965.78;;;13.47;57.93
76858;BME280;65830;0.000;0.000;2023-04-23T06:11:09;99965.31;;;13.69;58.03
76858;BME280;65830;0.000;0.000;2023-04-23T06:13:35;99960.78;;;13.98;57.64
76858;BME280;65830;0.000;0.000;2023-04-23T06:16:07;99968.78;;;13.98;56.82
76858;BME280;65830;0.000;0.000;2023-04-23T06:18:33;99960.31;;;14.02;57.40
76858;BME280;65830;0.000;0.000;2023-04-23T06:20:59;99962.28;;;14.18;56.77
76858;BME280;65830;0.000;0.000;2023-04-23T06:23:29;99969.03;;;14.30;56.78
76858;BME280;65830;0.000;0.000;2023-04-23T06:25:55;99970.38;;;14.35;56.30
76858;BME280;65830;0.000;0.000;2023-04-23T06:28:21;99961.41;;;14.36;56.50
76858;BME280;65830;0.000;0.000;2023-04-23T06:31:07;99970.03;;;14.29;56.75
76858;BME280;65830;0.000;0.000;2023-04-23T06:33:34;99957.00;;;14.26;55.57
76858;BME280;65830;0.000;0.000;2023-04-23T06:36:02;99957.53;;;14.30;56.03
76858;BME280;65830;0.000;0.000;2023-04-23T06:38:28;99966.34;;;14.30;56.24
76858;BME280;65830;0.000;0.000;2023-04-23T06:40:53;99961.31;;;14.45;55.65
76858;BME280;65830;0.000;0.000;2023-04-23T06:43:20;99961.97;;;14.65;55.22
76858;BME280;65830;0.000;0.000;2023-04-23T06:46:05;99957.50;;;14.74;55.38
76858;BME280;65830;0.000;0.000;2023-04-23T06:48:31;99958.50;;;14.47;55.62
76858;BME280;65830;0.000;0.000;2023-04-23T06:50:57;99963.81;;;14.47;55.44
76858;BME280;65830;0.000;0.000;2023-04-23T06:53:23;99966.00;;;14.69;54.98
76858;BME280;65830;0.000;0.000;2023-04-23T06:55:49;99959.63;;;14.97;54.87
76858;BME280;65830;0.000;0.000;2023-04-23T06:58:18;99962.22;;;15.15;54.33
76858;BME280;65830;0.000;0.000;2023-04-23T07:00:44;99960.25;;;15.33;54.44
76858;BME280;65830;0.000;0.000;2023-04-23T07:03:10;99958.28;;;15.52;54.20
76858;BME280;65830;0.000;0.000;2023-04-23T07:05:36;99961.66;;;15.54;53.27
76858;BME280;65830;0.000;0.000;2023-04-23T07:08:01;99957.06;;;15.29;52.98
76858;BME280;65830;0.000;0.000;2023-04-23T07:10:27;99962.78;;;15.35;53.79
76858;BME280;65830;0.000;0.000;2023-04-23T07:12:52;99960.56;;;15.30;53.48
76858;BME280;65830;0.000;0.000;2023-04-23T07:15:18;99954.66;;;15.10;53.95
76858;BME280;65830;0.000;0.000;2023-04-23T07:17:44;99957.81;;;15.05;54.38
76858;BME280;65830;0.000;0.000;2023-04-23T07:20:10;99961.44;;;14.96;54.78
76858;BME280;65830;0.000;0.000;2023-04-23T07:22:36;99961.28;;;14.98;54.80
76858;BME280;65830;0.000;0.000;2023-04-23T07:25:01;99959.13;;;15.01;54.91
76858;BME280;65830;0.000;0.000;2023-04-23T07:27:28;99955.41;;;14.94;54.43
76858;BME280;65830;0.000;0.000;2023-04-23T07:29:54;99957.75;;;14.89;54.65
76858;BME280;65830;0.000;0.000;2023-04-23T07:32:20;99948.41;;;14.93;54.75
76858;BME280;65830;0.000;0.000;2023-04-23T07:34:48;99948.91;;;14.88;54.86
76858;BME280;65830;0.000;0.000;2023-04-23T07:37:13;99947.72;;;14.83;55.38
76858;BME280;65830;0.000;0.000;2023-04-23T07:39:39;99946.53;;;14.85;55.44
76858;BME280;65830;0.000;0.000;2023-04-23T07:42:04;99949.06;;;14.87;55.09
76858;BME280;65830;0.000;0.000;2023-04-23T07:44:30;99949.22;;;14.85;55.59
76858;BME280;65830;0.000;0.000;2023-04-23T07:46:56;99947.81;;;14.73;55.51
76858;BME280;65830;0.000;0.000;2023-04-23T07:49:21;99943.19;;;14.83;55.32
76858;BME280;65830;0.000;0.000;2023-04-23T07:51:47;99943.91;;;14.94;54.75
76858;BME280;65830;0.000;0.000;2023-04-23T07:54:13;99941.78;;;15.05;54.79
76858;BME280;65830;0.000;0.000;2023-04-23T07:56:38;99939.13;;;15.14;54.13
76858;BME280;65830;0.000;0.000;2023-04-23T07:59:04;99934.59;;;15.06;54.24
76858;BME280;65830;0.000;0.000;2023-04-23T08:01:31;99942.19;;;15.19;54.67
76858;BME280;65830;0.000;0.000;2023-04-23T08:03:57;99939.03;;;15.40;53.63
76858;BME280;65830;0.000;0.000;2023-04-23T08:06:25;99936.22;;;15.49;52.59
76858;BME280;65830;0.000;0.000;2023-04-23T08:08:51;99937.56;;;15.45;53.12
76858;BME280;65830;0.000;0.000;2023-04-23T08:11:17;99933.09;;;15.62;53.20
76858;BME280;65830;0.000;0.000;2023-04-23T08:13:42;99936.09;;;15.67;52.68
76858;BME280;65830;0.000;0.000;2023-04-23T08:16:08;99933.50;;;15.76;52.35
76858;BME280;65830;0.000;0.000;2023-04-23T08:18:33;99933.66;;;15.82;52.04
76858;BME280;65830;0.000;0.000;2023-04-23T08:20:59;99925.78;;;15.81;52.47
76858;BME280;65830;0.000;0.000;2023-04-23T08:23:25;99928.28;;;15.74;52.38
76858;BME280;65830;0.000;0.000;2023-04-23T08:25:51;99920.59;;;15.79;52.47
76858;BME280;65830;0.000;0.000;2023-04-23T08:28:17;99917.25;;;15.85;52.34
76858;BME280;65830;0.000;0.000;2023-04-23T08:30:42;99920.25;;;15.99;51.29
76858;BME280;65830;0.000;0.000;2023-04-23T08:33:08;99922.63;;;15.94;50.15
76858;BME280;65830;0.000;0.000;2023-04-23T08:35:34;99928.28;;;15.99;49.66
76858;BME280;65830;0.000;0.000;2023-04-23T08:37:59;99922.09;;;16.15;49.07
76858;BME280;65830;0.000;0.000;2023-04-23T08:40:26;99916.88;;;16.38;48.20
76858;BME280;65830;0.000;0.000;2023-04-23T08:42:57;99914.69;;;16.50;48.72
76858;BME280;65830;0.000;0.000;2023-04-23T08:45:25;99923.22;;;16.53;46.79
76858;BME280;65830;0.000;0.000;2023-04-23T08:47:51;99910.63;;;16.62;47.26
76858;BME280;65830;0.000;0.000;2023-04-23T08:50:17;99908.75;;;16.71;47.12
76858;BME280;65830;0.000;0.000;2023-04-23T08:52:53;99915.44;;;16.75;46.18
76858;BME280;65830;0.000;0.000;2023-04-23T08:55:19;99903.38;;;16.87;48.18
76858;BME280;65830;0.000;0.000;2023-04-23T08:57:46;99914.03;;;17.03;48.43
76858;BME280;65830;0.000;0.000;2023-04-23T09:00:12;99911.63;;;17.17;47.14
76858;BME280;65830;0.000;0.000;2023-04-23T09:02:40;99909.16;;;17.07;48.88
76858;BME280;65830;0.000;0.000;2023-04-23T09:05:06;99898.00;;;16.95;46.81
76858;BME280;65830;0.000;0.000;2023-04-23T09:07:31;99900.03;;;16.77;46.63
76858;BME280;65830;0.000;0.000;2023-04-23T09:09:57;99900.03;;;16.85;46.05
76858;BME280;65830;0.000;0.000;2023-04-23T09:12:22;99893.69;;;16.70;46.07
76858;BME280;65830;0.000;0.000;2023-04-23T09:14:48;99902.69;;;16.77;48.56
76858;BME280;65830;0.000;0.000;2023-04-23T09:17:15;99894.19;;;16.81;46.41
76858;BME280;65830;0.000;0.000;2023-04-23T09:19:42;99888.84;;;16.73;46.46
76858;BME280;65830;0.000;0.000;2023-04-23T09:22:07;99894.19;;;16.73;47.42
76858;BME280;65830;0.000;0.000;2023-04-23T09:24:34;99891.16;;;16.84;46.63
76858;BME280;65830;0.000;0.000;2023-04-23T09:26:59;99892.84;;;16.85;46.87
76858;BME280;65830;0.000;0.000;2023-04-23T09:29:25;99893.31;;;16.89;46.70
76858;BME280;65830;0.000;0.000;2023-04-23T09:31:53;99875.06;;;16.84;45.21
76858;BME280;65830;0.000;0.000;2023-04-23T09:34:19;99883.94;;;16.77;45.12
76858;BME280;65830;0.000;0.000;2023-04-23T09:36:46;99883.28;;;16.75;45.80
76858;BME280;65830;0.000;0.000;2023-04-23T09:39:14;99875.25;;;16.75;44.99
76858;BME280;65830;0.000;0.000;2023-04-23T09:41:39;99873.59;;;16.74;45.56
76858;BME280;65830;0.000;0.000;2023-04-23T09:44:05;99872.41;;;16.76;44.68
76858;BME280;65830;0.000;0.000;2023-04-23T09:46:36;99869.50;;;16.94;46.11
76858;BME280;65830;0.000;0.000;2023-04-23T09:49:03;99871.03;;;16.97;45.99
76858;BME280;65830;0.000;0.000;2023-04-23T09:51:32;99880.22;;;17.25;44.60
76858;BME280;65830;0.000;0.000;2023-04-23T09:53:58;99864.84;;;17.19;45.43
76858;BME280;65830;0.000;0.000;2023-04-23T09:56:25;99860.53;;;17.10;45.71
76858;BME280;65830;0.000;0.000;2023-04-23T09:58:51;99861.41;;;17.11;45.45
76858;BME280;65830;0.000;0.000;2023-04-23T10:01:16;99862.22;;;17.11;44.57
76858;BME280;65830;0.000;0.000;2023-04-23T10:03:42;99857.03;;;17.10;45.48
76858;BME280;65830;0.000;0.000;2023-04-23T10:06:17;99846.97;;;17.12;44.19
76858;BME280;65830;0.000;0.000;2023-04-23T10:08:42;99843.75;;;17.16;44.96
76858;BME280;65830;0.000;0.000;2023-04-23T10:11:09;99844.28;;;17.12;44.12
76858;BME280;65830;0.000;0.000;2023-04-23T10:13:35;99846.41;;;17.24;45.44
76858;BME280;65830;0.000;0.000;2023-04-23T10:16:00;99833.22;;;17.38;44.62
76858;BME280;65830;0.000;0.000;2023-04-23T10:18:28;99835.53;;;17.41;44.88
76858;BME280;65830;0.000;0.000;2023-04-23T10:20:55;99831.31;;;17.46;44.40
76858;BME280;65830;0.000;0.000;2023-04-23T10:23:21;99829.09;;;17.50;43.58
76858;BME280;65830;0.000;0.000;2023-04-23T10:25:48;99819.88;;;17.53;42.83
76858;BME280;65830;0.000;0.000;2023-04-23T10:28:15;99821.91;;;17.51;43.85
76858;BME280;65830;0.000;0.000;2023-04-23T10:30:41;99820.28;;;17.41;43.27
76858;BME280;65830;0.000;0.000;2023-04-23T10:33:07;99814.00;;;17.26;43.59
76858;BME280;65830;0.000;0.000;2023-04-23T10:35:33;99816.59;;;17.42;43.87
76858;BME280;65830;0.000;0.000;2023-04-23T10:37:59;99809.72;;;17.63;44.27
76858;BME280;65830;0.000;0.000;2023-04-23T10:40:28;99809.63;;;17.71;43.09
76858;BME280;65830;0.000;0.000;2023-04-23T10:42:54;99801.09;;;17.67;43.54
76858;BME280;65830;0.000;0.000;2023-04-23T10:45:20;99799.63;;;17.65;43.02
76858;BME280;65830;0.000;0.000;2023-04-23T10:47:46;99806.69;;;17.66;44.52
76858;BME280;65830;0.000;0.000;2023-04-23T10:52:50;99794.06;;;17.90;43.45
76858;BME280;65830;0.000;0.000;2023-04-23T10:55:21;99788.97;;;17.95;42.62
76858;BME280;65830;0.000;0.000;2023-04-23T10:58:20;99776.59;;;18.09;42.89
76858;BME280;65830;0.000;0.000;2023-04-23T11:05:53;99771.38;;;18.52;42.54
76858;BME280;65830;0.000;0.000;2023-04-23T11:08:18;99769.56;;;18.74;42.71
76858;BME280;65830;0.000;0.000;2023-04-23T11:10:52;99766.31;;;18.93;43.39
76858;BME280;65830;0.000;0.000;2023-04-23T11:13:19;99759.63;;;19.11;40.55
76858;BME280;65830;0.000;0.000;2023-04-23T11:15:45;99766.69;;;19.33;40.03
76858;BME280;65830;0.000;0.000;2023-04-23T11:18:10;99758.28;;;19.43;39.59
76858;BME280;65830;0.000;0.000;2023-04-23T11:20:36;99757.19;;;19.59;40.53
76858;BME280;65830;0.000;0.000;2023-04-23T11:23:01;99753.09;;;19.70;38.84
76858;BME280;65830;0.000;0.000;2023-04-23T11:25:30;99754.97;;;19.97;38.90
76858;BME280;65830;0.000;0.000;2023-04-23T11:27:56;99749.22;;;20.07;37.36
76858;BME280;65830;0.000;0.000;2023-04-23T11:30:26;99752.59;;;19.81;37.44
76858;BME280;65830;0.000;0.000;2023-04-23T11:32:54;99747.63;;;20.13;39.10
76858;BME280;65830;0.000;0.000;2023-04-23T11:35:20;99742.50;;;20.31;38.17
76858;BME280;65830;0.000;0.000;2023-04-23T11:37:47;99753.38;;;20.51;36.39
76858;BME280;65830;0.000;0.000;2023-04-23T11:40:14;99748.22;;;20.50;36.16
76858;BME280;65830;0.000;0.000;2023-04-23T11:42:50;99749.03;;;21.25;36.13
76858;BME280;65830;0.000;0.000;2023-04-23T11:45:26;99751.94;;;21.84;36.54
76858;BME280;65830;0.000;0.000;2023-04-23T11:47:53;99741.72;;;22.12;34.83
76858;BME280;65830;0.000;0.000;2023-04-23T11:50:38;99734.75;;;22.50;33.24
76858;BME280;65830;0.000;0.000;2023-04-23T11:53:08;99724.53;;;23.22;31.94
76858;BME280;65830;0.000;0.000;2023-04-23T11:55:34;99735.09;;;23.81;31.91
76858;BME280;65830;0.000;0.000;2023-04-23T11:58:00;99717.94;;;23.62;30.77
76858;BME280;65830;0.000;0.000;2023-04-23T12:00:25;99725.31;;;23.79;31.32
76858;BME280;65830;0.000;0.000;2023-04-23T12:02:52;99716.66;;;24.08;31.65
76858;BME280;65830;0.000;0.000;2023-04-23T12:05:38;99717.47;;;24.45;30.84
76858;BME280;65830;0.000;0.000;2023-04-23T12:08:08;99712.75;;;25.13;29.93
76858;BME280;65830;0.000;0.000;2023-04-23T12:10:40;99707.91;;;25.57;29.37
76858;BME280;65830;0.000;0.000;2023-04-23T12:13:12;99709.88;;;25.85;29.72
76858;BME280;65830;0.000;0.000;2023-04-23T12:15:50;99705.19;;;26.73;29.86
76858;BME280;65830;0.000;0.000;2023-04-23T12:18:16;99705.97;;;27.70;28.23
76858;BME280;65830;0.000;0.000;2023-04-23T12:20:42;99698.03;;;29.34;27.19
76858;BME280;65830;0.000;0.000;2023-04-23T12:23:08;99689.94;;;30.65;24.78
76858;BME280;65830;0.000;0.000;2023-04-23T12:25:34;99689.69;;;30.82;22.85
76858;BME280;65830;0.000;0.000;2023-04-23T12:28:00;99685.03;;;30.82;23.05
76858;BME280;65830;0.000;0.000;2023-04-23T12:30:28;99676.75;;;30.52;22.45
76858;BME280;65830;0.000;0.000;2023-04-23T12:33:01;99680.16;;;28.94;26.66
76858;BME280;65830;0.000;0.000;2023-04-23T12:35:39;99675.41;;;29.86;24.65
76858;BME280;65830;0.000;0.000;2023-04-23T12:38:05;99668.34;;;30.00;23.19
76858;BME280;65830;0.000;0.000;2023-04-23T12:40:31;99663.94;;;30.88;25.13
76858;BME280;65830;0.000;0.000;2023-04-23T12:42:57;99661.53;;;31.12;22.73
76858;BME280;65830;0.000;0.000;2023-04-23T12:45:22;99655.72;;;29.89;22.15
76858;BME280;65830;0.000;0.000;2023-04-23T12:47:48;99654.78;;;30.21;23.28
76858;BME280;65830;0.000;0.000;2023-04-23T12:50:13;99651.47;;;28.37;23.78
76858;BME280;65830;0.000;0.000;2023-04-23T12:52:40;99645.84;;;27.38;22.96
76858;BME280;65830;0.000;0.000;2023-04-23T12:55:06;99650.53;;;26.92;25.02
76858;BME280;65830;0.000;0.000;2023-04-23T12:57:31;99657.44;;;27.50;27.75
76858;BME280;65830;0.000;0.000;2023-04-23T12:59:57;99658.00;;;27.69;28.46
76858;BME280;65830;0.000;0.000;2023-04-23T13:02:23;99650.06;;;27.68;24.91
76858;BME280;65830;0.000;0.000;2023-04-23T13:04:49;99648.63;;;26.92;24.84
76858;BME280;65830;0.000;0.000;2023-04-23T13:07:15;99648.47;;;26.82;23.52
76858;BME280;65830;0.000;0.000;2023-04-23T13:09:41;99642.50;;;27.19;25.61
76858;BME280;65830;0.000;0.000;2023-04-23T13:12:06;99644.00;;;27.44;25.47
76858;BME280;65830;0.000;0.000;2023-04-23T13:14:32;99648.47;;;27.16;24.02